createdAt,value
2018-07-02T00:01:18.706Z,101446.08
2018-07-02T00:03:50.770Z,101447.97
2018-07-02T00:06:40.579Z,101443.37
2018-07-02T00:09:11.210Z,101444.20
2018-07-02T00:11:42.751Z,101443.45
2018-07-02T00:14:13.041Z,101448.62
2018-07-02T00:16:47.687Z,101448.97
2018-07-02T00:19:19.660Z,101442.23
2018-07-02T00:21:51.523Z,101438.03
2018-07-02T00:24:23.370Z,101433.81
2018-07-02T00:26:54.600Z,101424.56
2018-07-02T00:29:26.469Z,101418.19
2018-07-02T00:31:59.468Z,101413.37
2018-07-02T00:34:28.372Z,101417.43
2018-07-02T00:36:57.178Z,101420.90
2018-07-02T00:39:25.944Z,101420.30
2018-07-02T00:41:57.615Z,101426.28
2018-07-02T00:44:32.899Z,101430.09
2018-07-02T00:47:04.630Z,101434.64
2018-07-02T00:49:34.614Z,101438.23
2018-07-02T00:52:03.417Z,101435.72
2018-07-02T00:54:32.227Z,101438.83
2018-07-02T00:57:01.011Z,101441.94
2018-07-02T00:59:29.950Z,101443.00
2018-07-02T01:02:00.709Z,101448.80
2018-07-02T01:04:30.570Z,101444.83
2018-07-02T01:07:01.740Z,101442.66
2018-07-02T01:09:30.558Z,101443.13
2018-07-02T01:11:59.394Z,101450.59
2018-07-02T01:14:28.163Z,101447.09
2018-07-02T01:16:57.142Z,101449.02
2018-07-02T01:19:26.968Z,101451.40
2018-07-02T01:21:56.832Z,101449.33
2018-07-02T01:24:26.619Z,101453.50
2018-07-02T01:26:55.450Z,101453.16
2018-07-02T01:29:24.293Z,101456.02
2018-07-02T01:31:53.234Z,101456.95
2018-07-02T01:34:22.210Z,101450.35
2018-07-02T01:36:51.764Z,101456.95
2018-07-02T01:39:21.407Z,101450.83
2018-07-02T01:41:51.064Z,101445.20
2018-07-02T01:44:19.834Z,101441.70
2018-07-02T01:46:48.683Z,101434.73
2018-07-02T01:49:17.445Z,101439.19
2018-07-02T01:51:46.356Z,101444.09
2018-07-02T01:54:15.756Z,101444.69
2018-07-02T01:56:46.614Z,101442.52
2018-07-02T01:59:17.347Z,101437.83
2018-07-02T02:01:46.285Z,101438.39
2018-07-02T02:04:15.075Z,101435.03
2018-07-02T02:06:43.899Z,101437.29
2018-07-02T02:09:13.080Z,101438.23
2018-07-02T02:11:42.683Z,101438.70
2018-07-02T02:14:12.826Z,101433.55
2018-07-02T02:16:42.682Z,101437.34
2018-07-02T02:19:11.478Z,101446.20
2018-07-02T02:21:40.285Z,101445.85
2018-07-02T02:24:09.035Z,101446.70
2018-07-02T02:26:38.094Z,101449.34
2018-07-02T02:29:07.776Z,101451.13
2018-07-02T02:31:39.368Z,101445.59
2018-07-02T02:34:11.154Z,101441.73
2018-07-02T02:36:40.058Z,101438.74
2018-07-02T02:39:09.871Z,101439.68
2018-07-02T02:41:38.662Z,101438.48
2018-07-02T02:44:07.996Z,101437.25
2018-07-02T02:46:39.051Z,101437.47
2018-07-02T02:49:08.747Z,101446.36
2018-07-02T02:51:38.198Z,101447.04
2018-07-02T02:54:07.090Z,101448.83
2018-07-02T02:56:35.849Z,101451.67
2018-07-02T02:59:04.616Z,101454.05
2018-07-02T03:01:33.527Z,101451.63
2018-07-02T03:04:03.220Z,101455.70
2018-07-02T03:06:32.575Z,101457.62
2018-07-02T03:09:02.748Z,101454.22
2018-07-02T03:11:31.482Z,101450.26
2018-07-02T03:14:00.237Z,101445.19
2018-07-02T03:16:29.051Z,101451.05
2018-07-02T03:18:57.941Z,101446.84
2018-07-02T03:21:27.919Z,101434.97
2018-07-02T03:23:59.660Z,101441.30
2018-07-02T03:26:32.690Z,101441.05
2018-07-02T03:29:04.730Z,101445.84
2018-07-02T03:31:33.704Z,101439.34
2018-07-02T03:34:02.557Z,101445.12
2018-07-02T03:36:31.369Z,101450.02
2018-07-02T03:39:00.466Z,101448.31
2018-07-02T03:41:31.341Z,101450.10
2018-07-02T03:44:01.178Z,101451.08
2018-07-02T03:46:30.763Z,101448.05
2018-07-02T03:48:59.541Z,101445.53
2018-07-02T03:51:28.379Z,101449.96
2018-07-02T03:53:57.238Z,101457.49
2018-07-02T03:56:26.531Z,101464.20
2018-07-02T03:58:55.789Z,101462.88
2018-07-02T04:01:25.280Z,101464.20
2018-07-02T04:03:54.676Z,101467.42
2018-07-02T04:06:26.573Z,101472.20
2018-07-02T04:08:55.395Z,101471.00
2018-07-02T04:11:24.183Z,101473.84
2018-07-02T04:13:53.603Z,101469.42
2018-07-02T04:16:23.244Z,101473.76
2018-07-02T04:18:56.903Z,101474.95
2018-07-02T04:21:26.826Z,101469.68
2018-07-02T04:23:55.689Z,101474.37
2018-07-02T04:26:24.606Z,101471.52
2018-07-02T04:28:53.838Z,101474.16
2018-07-02T04:31:23.129Z,101474.16
2018-07-02T04:33:53.005Z,101470.47
2018-07-02T04:36:22.683Z,101467.75
2018-07-02T04:38:55.016Z,101458.78
2018-07-02T04:41:23.779Z,101452.53
2018-07-02T04:43:52.677Z,101443.68
2018-07-02T04:46:21.517Z,101451.39
2018-07-02T04:48:50.940Z,101448.62
2018-07-02T04:51:20.758Z,101452.50
2018-07-02T04:53:53.076Z,101451.52
2018-07-02T04:56:24.522Z,101451.78
2018-07-02T04:58:53.348Z,101446.89
2018-07-02T05:01:22.134Z,101447.15
2018-07-02T05:03:50.949Z,101446.94
2018-07-02T05:06:20.767Z,101442.77
2018-07-02T05:08:51.325Z,101442.19
2018-07-02T05:11:20.690Z,101446.40
2018-07-02T05:13:50.791Z,101445.34
2018-07-02T05:16:19.582Z,101442.48
2018-07-02T05:18:48.348Z,101449.81
2018-07-02T05:21:17.307Z,101452.36
2018-07-02T05:23:46.781Z,101451.89
2018-07-02T05:26:16.622Z,101451.98
2018-07-02T05:28:45.659Z,101453.56
2018-07-02T05:31:14.839Z,101459.69
2018-07-02T05:33:43.636Z,101462.70
2018-07-02T05:36:12.326Z,101466.45
2018-07-02T05:38:41.150Z,101465.86
2018-07-02T05:41:10.517Z,101463.48
2018-07-02T05:43:40.427Z,101465.91
2018-07-02T05:46:09.636Z,101462.93
2018-07-02T05:48:45.233Z,101461.81
2018-07-02T05:51:14.062Z,101459.77
2018-07-02T05:53:42.799Z,101458.73
2018-07-02T05:56:11.794Z,101463.77
2018-07-02T05:58:42.442Z,101474.50
2018-07-02T06:01:12.172Z,101472.96
2018-07-02T06:03:48.180Z,101474.06
2018-07-02T06:06:17.446Z,101478.53
2018-07-02T06:08:46.275Z,101478.66
2018-07-02T06:11:15.078Z,101476.66
2018-07-02T06:13:44.050Z,101489.17
2018-07-02T06:16:13.630Z,101490.28
2018-07-02T06:18:42.727Z,101491.73
2018-07-02T06:21:12.464Z,101489.24
2018-07-02T06:23:41.440Z,101493.70
2018-07-02T06:26:10.187Z,101483.64
2018-07-02T06:28:38.942Z,101496.77
2018-07-02T06:31:07.878Z,101493.30
2018-07-02T06:42:11.741Z,101492.86
2018-07-02T06:44:44.360Z,101486.64
2018-07-02T06:47:13.098Z,101480.77
2018-07-02T06:50:14.405Z,101477.19
2018-07-02T06:52:44.121Z,101475.28
2018-07-02T06:55:13.793Z,101479.64
2018-07-02T06:57:43.403Z,101481.31
2018-07-02T07:00:12.742Z,101484.34
2018-07-02T07:02:41.840Z,101492.16
2018-07-02T07:05:10.970Z,101483.75
2018-07-02T07:19:10.074Z,101503.67
2018-07-02T07:21:39.396Z,101503.05
2018-07-02T07:24:08.008Z,101497.89
2018-07-02T07:37:02.554Z,101494.26
2018-07-02T07:39:31.399Z,101489.16
2018-07-02T07:42:00.262Z,101488.20
2018-07-02T07:44:29.230Z,101485.39
2018-07-02T07:58:50.166Z,101495.47
2018-07-02T08:01:19.173Z,101489.53
2018-07-02T08:13:05.697Z,101481.44
2018-07-02T08:15:34.411Z,101480.42
2018-07-02T08:18:03.215Z,101486.06
2018-07-02T08:20:32.145Z,101478.41
2018-07-02T08:32:10.434Z,101482.11
2018-07-02T08:34:39.414Z,101486.85
2018-07-02T08:37:08.377Z,101487.39
2018-07-02T08:51:47.707Z,101501.53
2018-07-02T08:54:16.877Z,101492.04
2018-07-02T08:56:46.241Z,101496.30
2018-07-02T09:11:19.563Z,101486.27
2018-07-02T09:13:48.521Z,101486.61
2018-07-02T09:16:18.306Z,101491.09
2018-07-02T09:40:08.185Z,101492.91
2018-07-02T09:42:37.895Z,101489.00
2018-07-02T09:45:08.511Z,101488.58
2018-07-02T09:57:06.235Z,101505.03
2018-07-02T09:59:35.215Z,101507.42
2018-07-02T10:02:04.192Z,101510.16
2018-07-02T10:04:33.534Z,101508.22
2018-07-02T10:16:11.250Z,101517.11
2018-07-02T10:18:40.170Z,101518.37
2018-07-02T10:21:09.267Z,101514.92
2018-07-02T10:23:40.332Z,101516.64
2018-07-02T10:35:19.123Z,101527.61
2018-07-02T10:37:49.095Z,101519.59
2018-07-02T10:40:18.084Z,101521.81
2018-07-02T10:54:57.214Z,101514.95
2018-07-02T10:57:26.307Z,101517.63
2018-07-02T10:59:55.311Z,101521.69
2018-07-02T11:17:09.419Z,101528.94
2018-07-02T11:19:38.265Z,101524.39
2018-07-02T11:22:07.861Z,101525.23
2018-07-02T11:27:47.826Z,101528.91
2018-07-02T11:30:27.422Z,101527.52
2018-07-02T11:38:37.507Z,101535.80
2018-07-02T11:41:06.530Z,101534.22
2018-07-02T11:43:35.961Z,101537.86
2018-07-02T11:58:17.571Z,101529.02
2018-07-02T12:00:46.494Z,101525.03
2018-07-02T12:03:15.638Z,101524.01
2018-07-02T12:14:52.558Z,101523.86
2018-07-02T12:17:21.699Z,101525.28
2018-07-02T12:19:50.687Z,101522.83
2018-07-02T12:22:21.114Z,101519.53
2018-07-02T12:37:01.486Z,101527.27
2018-07-02T12:39:30.611Z,101521.77
2018-07-02T12:41:59.794Z,101530.40
2018-07-02T12:59:41.542Z,101522.41
2018-07-02T13:02:10.675Z,101525.14
2018-07-02T13:04:40.023Z,101525.37
2018-07-02T13:22:30.563Z,101505.24
2018-07-02T13:24:59.544Z,101510.66
2018-07-02T13:27:29.968Z,101515.67
2018-07-02T13:51:19.083Z,101525.21
2018-07-02T13:53:49.173Z,101515.39
2018-07-02T13:56:18.166Z,101518.42
2018-07-02T14:10:58.007Z,101513.04
2018-07-02T14:13:27.064Z,101510.95
2018-07-02T14:15:55.998Z,101521.05
2018-07-02T14:30:36.516Z,101524.22
2018-07-02T14:33:05.619Z,101533.38
2018-07-02T14:35:34.751Z,101532.23
2018-07-02T14:53:17.837Z,101517.37
2018-07-02T14:55:47.006Z,101511.53
2018-07-02T14:58:16.862Z,101512.03
2018-07-02T15:19:03.592Z,101496.02
2018-07-02T15:21:32.684Z,101497.95
2018-07-02T15:24:01.760Z,101492.33
2018-07-02T15:50:52.832Z,101488.58
2018-07-02T15:53:24.081Z,101483.09
2018-07-02T15:55:58.383Z,101488.88
2018-07-02T16:37:56.730Z,101488.35
2018-07-02T16:40:25.614Z,101488.83
2018-07-02T16:42:54.507Z,101484.02
2018-07-02T16:45:23.935Z,101486.86
2018-07-02T17:16:40.163Z,101497.52
2018-07-02T17:19:15.973Z,101500.59
2018-07-02T17:21:44.943Z,101505.77
2018-07-02T17:24:13.815Z,101495.92
2018-07-02T17:26:43.022Z,101501.33
2018-07-02T18:02:44.629Z,101505.92
2018-07-02T18:05:13.640Z,101512.09
2018-07-02T18:07:42.598Z,101503.28
2018-07-02T18:10:11.916Z,101505.66
2018-07-02T19:23:33.007Z,101523.22
2018-07-02T19:26:25.099Z,101527.34
2018-07-02T20:37:35.897Z,101574.69
2018-07-02T20:58:39.360Z,101589.06
2018-07-02T21:01:08.230Z,101584.88
2018-07-02T21:03:37.168Z,101591.86
2018-07-02T21:06:16.055Z,101603.88
2018-07-02T21:12:04.419Z,101600.07
2018-07-02T21:14:55.229Z,101601.02
2018-07-02T22:32:57.645Z,101625.09
2018-07-02T22:35:26.534Z,101629.39
2018-07-02T22:37:55.642Z,101636.35
2018-07-02T23:25:24.283Z,101675.98
2018-07-02T23:30:44.273Z,101684.47
2018-07-02T23:33:27.254Z,101681.75
2018-07-02T23:38:52.578Z,101696.09
2018-07-02T23:41:31.454Z,101696.38
